Time;durP1;ratioP1;P1;durP2;ratioP2;P2;SDS_P1;SDS_P2;PMS_P1;PMS_P2;Temp;Humidity;BMP_temperature;BMP_pressure;BME280_temperature;BME280_humidity;BME280_pressure;Samples;Min_cycle;Max_cycle;Signal;HPM_P1;HPM_P2
2023/03/21 00:01:27;;;;;;;11.05;1.50;;;;;;;;;;5099649;28;20035;-75
2023/03/21 00:03:53;;;;;;;5.40;1.60;;;;;;;;;;5108725;28;20035;-76
2023/03/21 00:06:18;;;;;;;10.05;1.98;;;;;;;;;;5114230;28;20451;-76
2023/03/21 00:08:44;;;;;;;4.93;1.38;;;;;;;;;;5109981;28;20491;-75
2023/03/21 00:11:13;;;;;;;13.50;2.42;;;;;;;;;;5106019;28;20127;-76
2023/03/21 00:13:41;;;;;;;10.75;2.00;;;;;;;;;;5109470;28;20173;-75
2023/03/21 00:16:15;;;;;;;7.68;1.90;;;;;;;;;;5099920;28;20039;-76
2023/03/21 00:18:45;;;;;;;11.95;1.88;;;;;;;;;;5112921;28;20036;-76
2023/03/21 00:21:15;;;;;;;8.25;1.50;;;;;;;;;;5112871;28;20062;-76
2023/03/21 00:23:41;;;;;;;5.75;1.80;;;;;;;;;;5113192;28;20453;-75
2023/03/21 00:26:08;;;;;;;11.68;1.80;;;;;;;;;;5114214;27;20039;-76
2023/03/21 00:28:38;;;;;;;11.45;1.67;;;;;;;;;;5113569;28;20035;-75
2023/03/21 00:31:03;;;;;;;8.73;2.20;;;;;;;;;;5109728;28;20387;-75
2023/03/21 00:33:29;;;;;;;13.00;1.73;;;;;;;;;;5085508;28;20044;-75
2023/03/21 00:35:55;;;;;;;6.85;2.10;;;;;;;;;;5101231;28;20039;-76
2023/03/21 00:38:21;;;;;;;6.72;1.52;;;;;;;;;;5098334;28;20420;-76
2023/03/21 00:40:47;;;;;;;10.52;1.90;;;;;;;;;;5111099;28;20112;-76
2023/03/21 00:43:16;;;;;;;13.45;1.80;;;;;;;;;;5107766;28;20077;-76
2023/03/21 00:45:42;;;;;;;5.20;1.83;;;;;;;;;;5112900;28;20035;-76
2023/03/21 00:48:08;;;;;;;8.07;1.70;;;;;;;;;;5113675;28;20447;-76
2023/03/21 00:50:35;;;;;;;9.63;1.98;;;;;;;;;;5112497;28;20058;-75
2023/03/21 00:53:00;;;;;;;8.93;2.10;;;;;;;;;;5113617;28;20066;-75
2023/03/21 00:55:26;;;;;;;11.20;1.90;;;;;;;;;;5106264;28;20071;-76
2023/03/21 00:57:51;;;;;;;8.60;2.50;;;;;;;;;;5108444;28;20036;-75
2023/03/21 01:00:17;;;;;;;14.15;1.98;;;;;;;;;;5112619;28;20046;-75
2023/03/21 01:03:04;;;;;;;13.38;2.03;;;;;;;;;;5111953;28;20104;-75
2023/03/21 01:06:18;;;;;;;8.38;1.75;;;;;;;;;;5112138;28;20104;-76
2023/03/21 01:08:19;;;;;;;9.75;1.95;;;;;;;;;;5105080;28;20135;-74
2023/03/21 01:10:46;;;;;;;6.32;1.60;;;;;;;;;;5104985;28;20073;-75
2023/03/21 01:13:13;;;;;;;5.95;1.80;;;;;;;;;;5111953;28;20042;-75
2023/03/21 01:15:45;;;;;;;6.22;2.38;;;;;;;;;;5112313;28;20446;-76
2023/03/21 01:18:11;;;;;;;7.40;2.33;;;;;;;;;;5113072;28;20069;-75
2023/03/21 01:20:36;;;;;;;8.45;2.15;;;;;;;;;;5112181;28;20050;-76
2023/03/21 01:23:02;;;;;;;7.30;2.03;;;;;;;;;;5109605;28;20036;-76
2023/03/21 01:25:27;;;;;;;8.93;1.95;;;;;;;;;;5113463;28;20114;-76
2023/03/21 01:27:53;;;;;;;6.60;1.58;;;;;;;;;;5107708;28;20391;-76
2023/03/21 01:30:20;;;;;;;9.18;1.80;;;;;;;;;;5113271;28;20023;-76
2023/03/21 01:32:45;;;;;;;2.80;1.70;;;;;;;;;;5116904;28;20036;-76
2023/03/21 01:35:11;;;;;;;5.97;1.77;;;;;;;;;;5116386;28;20097;-76
2023/03/21 01:37:36;;;;;;;7.57;1.80;;;;;;;;;;5112110;28;20395;-76
2023/03/21 01:40:03;;;;;;;7.28;1.88;;;;;;;;;;5117359;28;20043;-75
2023/03/21 01:42:30;;;;;;;6.35;2.03;;;;;;;;;;5116431;28;20047;-77
2023/03/21 01:45:02;;;;;;;7.45;1.60;;;;;;;;;;5115807;28;20042;-76
2023/03/21 01:47:27;;;;;;;7.63;1.88;;;;;;;;;;5110254;28;20042;-75
2023/03/21 01:49:59;;;;;;;7.85;2.03;;;;;;;;;;5110581;28;20039;-75
2023/03/21 01:52:28;;;;;;;8.68;1.85;;;;;;;;;;5110498;28;20044;-76
2023/03/21 01:54:54;;;;;;;7.80;2.10;;;;;;;;;;5115827;28;20096;-76
2023/03/21 01:57:31;;;;;;;7.45;2.03;;;;;;;;;;5116132;28;20036;-76
2023/03/21 02:00:00;;;;;;;6.55;1.80;;;;;;;;;;5100499;28;20047;-76
2023/03/21 02:02:28;;;;;;;6.95;1.85;;;;;;;;;;5111944;28;20084;-76
2023/03/21 02:04:56;;;;;;;3.67;1.80;;;;;;;;;;5114479;28;20446;-76
2023/03/21 02:07:35;;;;;;;5.20;1.80;;;;;;;;;;5116718;28;20043;-76
2023/03/21 02:10:03;;;;;;;11.98;1.92;;;;;;;;;;5104249;28;20123;-76
2023/03/21 02:12:30;;;;;;;8.85;1.60;;;;;;;;;;5110992;28;20093;-75
2023/03/21 02:14:56;;;;;;;11.48;1.98;;;;;;;;;;5098223;28;20508;-75
2023/03/21 02:17:46;;;;;;;10.73;1.77;;;;;;;;;;5116111;28;20043;-76
2023/03/21 02:20:42;;;;;;;8.75;1.65;;;;;;;;;;5114993;28;20112;-76
2023/03/21 02:23:26;;;;;;;7.40;1.40;;;;;;;;;;5112752;28;20069;-76
2023/03/21 02:26:10;;;;;;;2.80;1.40;;;;;;;;;;5109380;28;20040;-75
2023/03/21 02:29:01;;;;;;;9.45;2.03;;;;;;;;;;5110912;28;20487;-75
2023/03/21 02:32:02;;;;;;;3.65;1.23;;;;;;;;;;5110601;28;20055;-75
2023/03/21 02:34:59;;;;;;;6.20;1.70;;;;;;;;;;5064641;28;20147;-76
2023/03/21 02:37:30;;;;;;;6.72;1.80;;;;;;;;;;5104076;28;20040;-76
2023/03/21 02:40:09;;;;;;;5.70;1.90;;;;;;;;;;5110774;28;20084;-76
2023/03/21 02:42:55;;;;;;;3.38;1.70;;;;;;;;;;5114819;28;20471;-75
2023/03/21 02:45:25;;;;;;;4.10;1.40;;;;;;;;;;5097874;28;20119;-75
2023/03/21 02:48:10;;;;;;;7.63;1.95;;;;;;;;;;5105974;28;20039;-75
2023/03/21 02:50:48;;;;;;;7.95;2.70;;;;;;;;;;5106000;28;20039;-75
2023/03/21 02:53:15;;;;;;;5.10;2.40;;;;;;;;;;5109028;28;20127;-75
2023/03/21 02:55:42;;;;;;;7.25;2.03;;;;;;;;;;5114598;28;20122;-75
2023/03/21 02:58:11;;;;;;;6.60;2.88;;;;;;;;;;5110482;28;20040;-75
2023/03/21 03:00:37;;;;;;;6.30;2.30;;;;;;;;;;5113228;28;20070;-76
2023/03/21 03:03:02;;;;;;;9.98;3.08;;;;;;;;;;5114345;28;20038;-76
2023/03/21 03:05:30;;;;;;;9.07;3.35;;;;;;;;;;5115632;28;20028;-75
2023/03/21 03:07:55;;;;;;;10.93;3.78;;;;;;;;;;5108374;28;20089;-76
2023/03/21 03:10:58;;;;;;;13.52;3.80;;;;;;;;;;5102521;28;20028;-76
2023/03/21 03:13:29;;;;;;;7.47;3.13;;;;;;;;;;5115531;28;20064;-75
2023/03/21 03:16:08;;;;;;;6.53;2.78;;;;;;;;;;5115508;28;20031;-76
2023/03/21 03:18:50;;;;;;;8.77;2.95;;;;;;;;;;5115645;28;20039;-75
2023/03/21 03:21:32;;;;;;;11.60;2.97;;;;;;;;;;5096773;28;20036;-76
2023/03/21 03:24:21;;;;;;;10.75;2.95;;;;;;;;;;5105959;28;20063;-76
2023/03/21 03:26:55;;;;;;;9.00;2.65;;;;;;;;;;5111637;28;20039;-76
2023/03/21 03:29:21;;;;;;;10.88;2.90;;;;;;;;;;5109127;28;20047;-76
2023/03/21 03:32:01;;;;;;;12.32;2.50;;;;;;;;;;5108810;28;20047;-76
2023/03/21 03:34:33;;;;;;;11.57;2.15;;;;;;;;;;5109957;28;20043;-75
2023/03/21 03:37:01;;;;;;;13.18;3.22;;;;;;;;;;5113680;28;20032;-76
2023/03/21 03:39:34;;;;;;;10.60;2.90;;;;;;;;;;5112901;28;20074;-75
2023/03/21 03:42:04;;;;;;;8.97;2.40;;;;;;;;;;5105312;28;20735;-76
2023/03/21 03:44:29;;;;;;;14.13;2.60;;;;;;;;;;5113727;28;20391;-76
2023/03/21 03:47:07;;;;;;;7.15;3.00;;;;;;;;;;5111044;28;20032;-76
2023/03/21 03:49:47;;;;;;;11.80;3.08;;;;;;;;;;5110116;28;20042;-76
2023/03/21 03:52:19;;;;;;;17.30;3.10;;;;;;;;;;5110782;28;20028;-76
2023/03/21 03:54:47;;;;;;;15.30;3.10;;;;;;;;;;5113209;28;20048;-76
2023/03/21 03:57:13;;;;;;;17.23;3.67;;;;;;;;;;5113529;28;20032;-76
2023/03/21 03:59:40;;;;;;;16.02;3.58;;;;;;;;;;5114687;28;20380;-76
2023/03/21 04:02:06;;;;;;;15.52;2.83;;;;;;;;;;5106158;28;20044;-76
2023/03/21 04:04:32;;;;;;;12.55;2.78;;;;;;;;;;5106292;28;20401;-75
2023/03/21 04:06:58;;;;;;;11.75;3.03;;;;;;;;;;5113799;28;20477;-75
2023/03/21 04:09:27;;;;;;;10.88;3.78;;;;;;;;;;5112688;28;20051;-76
2023/03/21 04:11:53;;;;;;;14.95;3.40;;;;;;;;;;5104559;28;20092;-76
2023/03/21 04:14:18;;;;;;;12.57;3.30;;;;;;;;;;5111603;28;20039;-76
2023/03/21 04:16:44;;;;;;;11.07;2.92;;;;;;;;;;5111626;28;20039;-76
2023/03/21 04:19:09;;;;;;;11.75;3.33;;;;;;;;;;5101423;28;20042;-76
2023/03/21 04:21:35;;;;;;;10.18;2.90;;;;;;;;;;5114046;28;20475;-76
2023/03/21 04:24:01;;;;;;;15.05;2.85;;;;;;;;;;5113801;28;20058;-76
2023/03/21 04:26:31;;;;;;;8.38;2.92;;;;;;;;;;5110460;28;21606;-75
2023/03/21 04:28:59;;;;;;;9.70;2.83;;;;;;;;;;5111543;28;20036;-75
2023/03/21 04:31:29;;;;;;;11.82;2.63;;;;;;;;;;5112469;28;20047;-76
2023/03/21 04:33:56;;;;;;;13.95;3.15;;;;;;;;;;5113029;28;20032;-76
2023/03/21 04:36:29;;;;;;;14.32;2.97;;;;;;;;;;5113580;28;20043;-75
2023/03/21 04:38:59;;;;;;;3.50;1.60;;;;;;;;;;5114184;28;20036;-75
2023/03/21 04:41:29;;;;;;;11.15;2.85;;;;;;;;;;5102409;28;20044;-75
2023/03/21 04:43:55;;;;;;;5.60;2.03;;;;;;;;;;5109486;28;20081;-75
2023/03/21 04:46:21;;;;;;;13.43;3.10;;;;;;;;;;5113475;28;20442;-76
2023/03/21 04:48:47;;;;;;;10.20;2.15;;;;;;;;;;5101238;28;20493;-76
2023/03/21 04:51:14;;;;;;;6.28;2.53;;;;;;;;;;5100249;28;20047;-76
2023/03/21 04:53:42;;;;;;;10.95;2.20;;;;;;;;;;5105914;28;20036;-76
2023/03/21 04:56:08;;;;;;;6.90;1.88;;;;;;;;;;5096154;28;20036;-76
2023/03/21 04:58:34;;;;;;;6.20;1.70;;;;;;;;;;5105491;28;20034;-75
2023/03/21 05:01:01;;;;;;;7.40;1.90;;;;;;;;;;5106897;28;20036;-75
2023/03/21 05:03:28;;;;;;;7.38;1.73;;;;;;;;;;5109593;28;20038;-76
2023/03/21 05:05:54;;;;;;;6.70;1.95;;;;;;;;;;5111186;28;20074;-76
2023/03/21 05:08:20;;;;;;;4.15;2.08;;;;;;;;;;5109393;28;20479;-76
2023/03/21 05:10:45;;;;;;;11.95;2.40;;;;;;;;;;5113371;28;20092;-76
2023/03/21 05:13:10;;;;;;;6.47;1.70;;;;;;;;;;5097980;28;20396;-75
2023/03/21 05:15:36;;;;;;;9.18;2.53;;;;;;;;;;5110393;28;20035;-75
2023/03/21 05:18:09;;;;;;;5.60;1.90;;;;;;;;;;5113376;28;20118;-76
2023/03/21 05:20:34;;;;;;;9.80;2.03;;;;;;;;;;5113687;28;20031;-75
2023/03/21 05:23:00;;;;;;;6.85;1.80;;;;;;;;;;5113185;28;20040;-76
2023/03/21 05:25:33;;;;;;;5.70;1.92;;;;;;;;;;5112965;28;20126;-76
2023/03/21 05:28:00;;;;;;;7.07;2.42;;;;;;;;;;5113382;28;20032;-76
2023/03/21 05:30:26;;;;;;;7.93;2.40;;;;;;;;;;5109754;28;20031;-75
2023/03/21 05:32:52;;;;;;;7.70;1.85;;;;;;;;;;5113016;28;20387;-75
2023/03/21 05:35:17;;;;;;;13.45;3.35;;;;;;;;;;5113375;28;20039;-76
2023/03/21 05:37:43;;;;;;;6.05;1.95;;;;;;;;;;5110259;28;20075;-76
2023/03/21 05:40:09;;;;;;;5.25;2.45;;;;;;;;;;5100582;28;20032;-75
2023/03/21 05:42:34;;;;;;;8.60;2.17;;;;;;;;;;5111355;28;20039;-75
2023/03/21 05:45:00;;;;;;;7.78;2.10;;;;;;;;;;5112663;28;20536;-76
2023/03/21 05:47:25;;;;;;;8.75;2.08;;;;;;;;;;5108712;28;20471;-75
2023/03/21 05:49:51;;;;;;;12.38;2.58;;;;;;;;;;5110882;28;20164;-75
2023/03/21 05:52:16;;;;;;;9.32;2.10;;;;;;;;;;5108430;28;20092;-75
2023/03/21 05:54:42;;;;;;;7.28;2.33;;;;;;;;;;5112880;28;20088;-75
2023/03/21 05:57:07;;;;;;;8.52;2.72;;;;;;;;;;5101850;28;20435;-76
2023/03/21 05:59:33;;;;;;;8.02;1.92;;;;;;;;;;5102223;28;20059;-76
2023/03/21 06:01:59;;;;;;;9.35;2.42;;;;;;;;;;5100696;28;20054;-75
2023/03/21 06:04:25;;;;;;;6.68;1.92;;;;;;;;;;5102769;28;20028;-75
2023/03/21 06:06:52;;;;;;;7.95;2.00;;;;;;;;;;5112689;28;20046;-75
2023/03/21 06:09:19;;;;;;;8.60;2.10;;;;;;;;;;5113374;28;20039;-75
2023/03/21 06:11:50;;;;;;;10.55;2.22;;;;;;;;;;5112195;28;20428;-75
2023/03/21 06:14:15;;;;;;;9.32;1.85;;;;;;;;;;5112098;28;20118;-76
2023/03/21 06:16:41;;;;;;;7.70;1.85;;;;;;;;;;5112676;28;20165;-75
2023/03/21 06:19:07;;;;;;;11.43;2.33;;;;;;;;;;5111036;28;20076;-75
2023/03/21 06:21:32;;;;;;;9.15;1.80;;;;;;;;;;5108116;28;20550;-76
2023/03/21 06:23:57;;;;;;;15.50;2.47;;;;;;;;;;5109290;28;20535;-75
2023/03/21 06:26:23;;;;;;;9.73;1.90;;;;;;;;;;5105634;28;20046;-76
2023/03/21 06:28:49;;;;;;;9.57;1.83;;;;;;;;;;5116528;28;20146;-75
2023/03/21 06:31:15;;;;;;;7.60;1.65;;;;;;;;;;5116338;28;20139;-76
2023/03/21 06:33:40;;;;;;;7.60;1.77;;;;;;;;;;5111169;28;20055;-76
2023/03/21 06:36:06;;;;;;;9.45;2.20;;;;;;;;;;5116348;28;20036;-76
2023/03/21 06:38:32;;;;;;;8.07;1.80;;;;;;;;;;5112760;28;20039;-76
2023/03/21 06:40:57;;;;;;;10.63;1.70;;;;;;;;;;5116371;28;20038;-76
2023/03/21 06:43:23;;;;;;;9.60;2.05;;;;;;;;;;5116201;28;20035;-76
2023/03/21 06:45:49;;;;;;;8.90;1.83;;;;;;;;;;5111274;28;20425;-75
2023/03/21 06:48:14;;;;;;;7.82;1.50;;;;;;;;;;5102744;27;20047;-76
2023/03/21 06:50:40;;;;;;;8.50;1.40;;;;;;;;;;5116289;28;20043;-75
2023/03/21 06:53:05;;;;;;;6.75;1.30;;;;;;;;;;5116132;28;20035;-75
2023/03/21 06:55:30;;;;;;;8.98;2.00;;;;;;;;;;5115741;28;20422;-76
2023/03/21 06:57:56;;;;;;;9.13;1.70;;;;;;;;;;5115152;28;20043;-76
2023/03/21 07:00:22;;;;;;;4.90;1.55;;;;;;;;;;5116056;28;20048;-76
2023/03/21 07:02:48;;;;;;;11.45;2.17;;;;;;;;;;5113409;28;20089;-76
2023/03/21 07:05:15;;;;;;;5.10;1.50;;;;;;;;;;5115262;28;20060;-76
2023/03/21 07:07:40;;;;;;;5.57;1.50;;;;;;;;;;5105084;28;20039;-75
2023/03/21 07:10:06;;;;;;;9.45;2.08;;;;;;;;;;5114676;28;20494;-75
2023/03/21 07:12:33;;;;;;;12.63;2.10;;;;;;;;;;5108372;28;20045;-75
2023/03/21 07:14:59;;;;;;;15.30;2.10;;;;;;;;;;5115330;28;20047;-76
2023/03/21 07:17:25;;;;;;;16.42;1.90;;;;;;;;;;5107453;28;20032;-76
2023/03/21 07:19:50;;;;;;;13.07;2.25;;;;;;;;;;5115639;28;20084;-76
2023/03/21 07:22:16;;;;;;;13.45;2.42;;;;;;;;;;5114158;28;20047;-75
2023/03/21 07:24:41;;;;;;;9.70;2.25;;;;;;;;;;5115430;28;20032;-76
2023/03/21 07:27:07;;;;;;;9.00;2.05;;;;;;;;;;5115455;28;20047;-76
2023/03/21 07:29:32;;;;;;;9.13;3.15;;;;;;;;;;5113209;28;20034;-76
2023/03/21 07:31:58;;;;;;;14.00;3.33;;;;;;;;;;5112929;28;20061;-75
2023/03/21 07:34:23;;;;;;;12.93;3.72;;;;;;;;;;5114122;28;20384;-75
2023/03/21 07:36:49;;;;;;;17.83;3.55;;;;;;;;;;5111885;28;20047;-76
2023/03/21 07:39:14;;;;;;;16.25;4.10;;;;;;;;;;5115171;28;20031;-76
2023/03/21 07:41:40;;;;;;;19.65;5.38;;;;;;;;;;5113440;28;20047;-76
2023/03/21 07:44:05;;;;;;;8.85;3.45;;;;;;;;;;5102633;28;20036;-76
2023/03/21 07:46:30;;;;;;;17.38;3.67;;;;;;;;;;5109916;28;20030;-76
2023/03/21 07:48:56;;;;;;;15.73;5.38;;;;;;;;;;5111253;28;20043;-77
2023/03/21 07:51:21;;;;;;;15.68;2.53;;;;;;;;;;5113711;28;20035;-77
2023/03/21 07:53:47;;;;;;;21.25;2.33;;;;;;;;;;5113237;28;20527;-76
2023/03/21 07:56:13;;;;;;;11.38;2.33;;;;;;;;;;5114107;28;20043;-77
2023/03/21 07:58:38;;;;;;;12.65;1.95;;;;;;;;;;5111313;28;20157;-77
2023/03/21 08:01:04;;;;;;;13.18;1.92;;;;;;;;;;5114987;28;20118;-77
2023/03/21 08:03:32;;;;;;;10.27;1.90;;;;;;;;;;5111418;28;20118;-77
2023/03/21 08:06:00;;;;;;;10.50;1.75;;;;;;;;;;5114925;28;20035;-76
2023/03/21 08:08:25;;;;;;;11.07;2.00;;;;;;;;;;5101571;28;20135;-77
2023/03/21 08:10:51;;;;;;;7.95;1.65;;;;;;;;;;5113539;28;20511;-76
2023/03/21 08:13:16;;;;;;;11.52;2.13;;;;;;;;;;5109211;28;20038;-76
2023/03/21 08:15:42;;;;;;;13.70;2.22;;;;;;;;;;5114263;28;20114;-77
2023/03/21 08:18:08;;;;;;;9.38;1.50;;;;;;;;;;5111990;28;20028;-76
2023/03/21 08:20:34;;;;;;;7.30;1.52;;;;;;;;;;5109254;28;20032;-77
2023/03/21 08:23:00;;;;;;;6.78;1.38;;;;;;;;;;5106512;28;20069;-76
2023/03/21 08:25:25;;;;;;;11.90;1.40;;;;;;;;;;5105732;28;20031;-76
2023/03/21 08:27:51;;;;;;;7.72;1.23;;;;;;;;;;5108173;28;20112;-77
2023/03/21 08:30:19;;;;;;;5.50;1.45;;;;;;;;;;5114799;28;20114;-76
2023/03/21 08:32:45;;;;;;;4.38;0.90;;;;;;;;;;5110901;28;20036;-77
2023/03/21 08:35:12;;;;;;;6.68;1.60;;;;;;;;;;5114361;28;20112;-76
2023/03/21 08:37:39;;;;;;;6.97;1.45;;;;;;;;;;5113152;28;20034;-76
2023/03/21 08:40:08;;;;;;;6.38;1.00;;;;;;;;;;5095178;28;20059;-77
2023/03/21 08:42:34;;;;;;;9.82;1.40;;;;;;;;;;5101351;28;20039;-77
2023/03/21 08:44:59;;;;;;;15.02;3.13;;;;;;;;;;5110599;28;20479;-75
2023/03/21 08:47:25;;;;;;;14.98;2.15;;;;;;;;;;5103613;28;20047;-76
2023/03/21 08:49:50;;;;;;;3.53;1.17;;;;;;;;;;5087620;28;20088;-76
2023/03/21 08:52:16;;;;;;;8.55;1.70;;;;;;;;;;5109718;28;20111;-75
2023/03/21 08:54:43;;;;;;;5.15;1.38;;;;;;;;;;5105848;28;20053;-78
2023/03/21 08:57:09;;;;;;;9.40;2.50;;;;;;;;;;5108431;28;20027;-76
2023/03/21 08:59:35;;;;;;;7.78;1.55;;;;;;;;;;5108979;28;20032;-76
2023/03/21 09:02:00;;;;;;;7.15;1.70;;;;;;;;;;5101784;28;20063;-75
2023/03/21 09:04:26;;;;;;;7.30;2.00;;;;;;;;;;5093450;28;20489;-76
2023/03/21 09:06:51;;;;;;;6.93;1.63;;;;;;;;;;5109247;28;20043;-76
2023/03/21 09:09:17;;;;;;;5.07;1.50;;;;;;;;;;5100821;28;20410;-75
2023/03/21 09:11:42;;;;;;;6.70;1.63;;;;;;;;;;5111622;28;20453;-76
2023/03/21 09:14:08;;;;;;;10.25;1.55;;;;;;;;;;5100743;28;20101;-76
2023/03/21 09:16:34;;;;;;;7.40;1.50;;;;;;;;;;5109541;28;20039;-75
2023/03/21 09:19:02;;;;;;;10.18;1.85;;;;;;;;;;5106838;28;20391;-75
2023/03/21 09:21:28;;;;;;;10.70;1.70;;;;;;;;;;5109818;28;20076;-75
2023/03/21 09:23:55;;;;;;;6.00;1.40;;;;;;;;;;5109198;28;20039;-74
2023/03/21 09:26:25;;;;;;;14.73;2.47;;;;;;;;;;5108318;28;20044;-75
2023/03/21 09:28:52;;;;;;;8.23;1.45;;;;;;;;;;5108083;28;20031;-75
2023/03/21 09:31:21;;;;;;;7.75;1.33;;;;;;;;;;5108640;28;20043;-75
2023/03/21 09:33:51;;;;;;;10.88;1.88;;;;;;;;;;5109537;28;20043;-76
2023/03/21 09:36:20;;;;;;;6.88;1.20;;;;;;;;;;5107943;28;20102;-76
2023/03/21 09:38:47;;;;;;;5.95;1.40;;;;;;;;;;5109366;28;20035;-76
2023/03/21 09:41:29;;;;;;;7.85;1.50;;;;;;;;;;5109971;28;20032;-76
2023/03/21 09:44:03;;;;;;;7.07;1.70;;;;;;;;;;5097819;28;20047;-76
2023/03/21 09:47:01;;;;;;;13.02;2.30;;;;;;;;;;5108025;28;20027;-76
2023/03/21 09:49:43;;;;;;;9.18;1.77;;;;;;;;;;5109213;28;20059;-75
2023/03/21 09:52:19;;;;;;;8.77;1.38;;;;;;;;;;5109305;28;20057;-75
2023/03/21 09:54:45;;;;;;;9.43;1.73;;;;;;;;;;5104541;28;20510;-76
2023/03/21 09:57:19;;;;;;;11.13;1.80;;;;;;;;;;5107465;28;20035;-75
2023/03/21 09:59:46;;;;;;;7.50;1.50;;;;;;;;;;5104787;28;20475;-75
2023/03/21 10:02:46;;;;;;;11.35;1.60;;;;;;;;;;5111504;28;20039;-75
2023/03/21 10:05:21;;;;;;;11.90;2.00;;;;;;;;;;5091179;28;20523;-76
2023/03/21 10:08:13;;;;;;;11.88;1.88;;;;;;;;;;5108905;28;20039;-75
2023/03/21 10:11:05;;;;;;;13.20;1.90;;;;;;;;;;5106796;28;20488;-75
2023/03/21 10:13:54;;;;;;;12.27;2.00;;;;;;;;;;5108529;28;20074;-75
2023/03/21 10:16:45;;;;;;;12.90;2.03;;;;;;;;;;5106126;28;20036;-75
2023/03/21 10:19:13;;;;;;;7.70;1.27;;;;;;;;;;5101820;28;20102;-76
2023/03/21 10:21:42;;;;;;;7.57;1.88;;;;;;;;;;5101498;28;20376;-75
2023/03/21 10:24:14;;;;;;;6.93;1.60;;;;;;;;;;5101669;28;20046;-75
2023/03/21 10:26:41;;;;;;;10.88;1.75;;;;;;;;;;5108973;28;20028;-75
2023/03/21 10:29:06;;;;;;;8.30;1.45;;;;;;;;;;5111362;28;20494;-76
2023/03/21 10:31:32;;;;;;;10.27;1.73;;;;;;;;;;5111655;28;20024;-75
2023/03/21 10:34:02;;;;;;;8.60;1.30;;;;;;;;;;5104305;28;20050;-74
2023/03/21 10:36:30;;;;;;;11.82;1.67;;;;;;;;;;5099392;28;20093;-75
2023/03/21 10:39:07;;;;;;;8.07;1.30;;;;;;;;;;5109613;28;20023;-75
2023/03/21 10:41:33;;;;;;;9.52;2.17;;;;;;;;;;5097262;28;20035;-75
2023/03/21 10:44:06;;;;;;;6.63;1.60;;;;;;;;;;5111092;28;20379;-75
2023/03/21 10:46:32;;;;;;;8.65;1.60;;;;;;;;;;5099179;28;20049;-75
2023/03/21 10:48:58;;;;;;;8.82;1.45;;;;;;;;;;5110255;27;20036;-75
2023/03/21 10:51:30;;;;;;;11.32;1.63;;;;;;;;;;5111556;28;20032;-75
2023/03/21 10:54:18;;;;;;;5.68;1.35;;;;;;;;;;5112868;28;20066;-75
2023/03/21 10:56:56;;;;;;;4.03;0.90;;;;;;;;;;5111945;28;20050;-75
2023/03/21 10:59:22;;;;;;;8.18;1.15;;;;;;;;;;5111098;28;20046;-75
2023/03/21 11:01:50;;;;;;;11.32;1.95;;;;;;;;;;5110026;28;20035;-75
2023/03/21 11:04:18;;;;;;;6.78;1.40;;;;;;;;;;5109298;28;20491;-75
2023/03/21 11:06:53;;;;;;;9.50;1.25;;;;;;;;;;5110081;28;20043;-75
2023/03/21 11:09:23;;;;;;;7.20;1.42;;;;;;;;;;5102607;28;20043;-75
2023/03/21 11:12:04;;;;;;;6.38;1.98;;;;;;;;;;5109673;28;20161;-75
2023/03/21 11:14:38;;;;;;;5.13;1.17;;;;;;;;;;5111860;28;20177;-75
2023/03/21 11:17:16;;;;;;;8.68;1.05;;;;;;;;;;5110446;28;20452;-75
2023/03/21 11:19:48;;;;;;;8.07;2.00;;;;;;;;;;5112507;28;20105;-76
2023/03/21 11:22:14;;;;;;;6.15;1.08;;;;;;;;;;5111586;28;20031;-75
2023/03/21 11:24:41;;;;;;;4.15;0.95;;;;;;;;;;5111163;28;20043;-76
2023/03/21 11:27:07;;;;;;;6.50;1.02;;;;;;;;;;5111568;28;20104;-76
2023/03/21 11:29:40;;;;;;;6.55;1.20;;;;;;;;;;5111847;28;20530;-76
2023/03/21 11:32:25;;;;;;;3.67;0.80;;;;;;;;;;5109938;28;20039;-75
2023/03/21 11:35:20;;;;;;;6.90;1.35;;;;;;;;;;5110642;27;20046;-75
2023/03/21 11:37:52;;;;;;;3.45;0.77;;;;;;;;;;5092210;28;20051;-75
2023/03/21 11:40:27;;;;;;;4.63;0.85;;;;;;;;;;5110620;28;20093;-75
2023/03/21 11:42:54;;;;;;;4.40;0.70;;;;;;;;;;5110671;28;20047;-75
2023/03/21 11:45:22;;;;;;;8.05;1.00;;;;;;;;;;5109398;28;20051;-76
2023/03/21 11:47:49;;;;;;;3.25;0.90;;;;;;;;;;5111480;28;20042;-75
2023/03/21 11:50:32;;;;;;;9.60;1.45;;;;;;;;;;5107520;28;20032;-75
2023/03/21 11:53:25;;;;;;;7.75;1.23;;;;;;;;;;5100745;28;20035;-75
2023/03/21 11:56:14;;;;;;;6.95;1.10;;;;;;;;;;5108463;28;20052;-75
2023/03/21 11:59:05;;;;;;;6.68;1.30;;;;;;;;;;5103494;28;20052;-75
2023/03/21 12:01:41;;;;;;;5.05;1.20;;;;;;;;;;5096164;28;20047;-75
2023/03/21 12:04:35;;;;;;;8.77;1.13;;;;;;;;;;5108624;28;20046;-75
2023/03/21 12:07:06;;;;;;;;;;;;;;;;;;5110523;28;20046;-75
2023/03/21 12:09:44;;;;;;;6.18;1.20;;;;;;;;;;5098913;28;19992;-75
2023/03/21 12:12:33;;;;;;;6.40;1.92;;;;;;;;;;5098798;28;20032;-76
2023/03/21 12:15:10;;;;;;;4.60;1.30;;;;;;;;;;5107807;28;20027;-75
2023/03/21 12:18:11;;;;;;;12.15;4.45;;;;;;;;;;5108884;28;20386;-75
2023/03/21 12:20:52;;;;;;;7.65;1.40;;;;;;;;;;5103552;28;20084;-76
2023/03/21 12:23:39;;;;;;;10.65;2.10;;;;;;;;;;5105509;28;20119;-76
2023/03/21 12:26:10;;;;;;;3.28;1.15;;;;;;;;;;5097573;28;20040;-75
2023/03/21 12:28:46;;;;;;;6.43;1.60;;;;;;;;;;5109662;28;20035;-75
2023/03/21 12:31:24;;;;;;;3.75;1.02;;;;;;;;;;5108774;28;20089;-75
2023/03/21 12:34:26;;;;;;;17.77;2.15;;;;;;;;;;5104657;28;20368;-75
2023/03/21 12:37:01;;;;;;;7.38;1.52;;;;;;;;;;5064032;28;20570;-76
2023/03/21 12:39:31;;;;;;;6.80;1.90;;;;;;;;;;5107603;28;20471;-75
2023/03/21 12:42:12;;;;;;;7.57;1.83;;;;;;;;;;5107497;28;20047;-76
2023/03/21 12:44:47;;;;;;;8.85;2.00;;;;;;;;;;5107440;28;20038;-76
2023/03/21 12:47:21;;;;;;;13.13;1.98;;;;;;;;;;5108676;28;20074;-76
2023/03/21 12:50:08;;;;;;;4.40;1.15;;;;;;;;;;5102510;28;20053;-76
2023/03/21 12:52:46;;;;;;;8.60;1.65;;;;;;;;;;5101578;28;20038;-76
2023/03/21 12:55:22;;;;;;;4.60;1.20;;;;;;;;;;5107372;28;20035;-76
2023/03/21 12:58:02;;;;;;;10.55;1.48;;;;;;;;;;5109475;28;20121;-76
2023/03/21 13:00:35;;;;;;;5.45;1.38;;;;;;;;;;5109368;28;20110;-76
2023/03/21 13:03:20;;;;;;;5.07;1.35;;;;;;;;;;5107174;28;20123;-76
2023/03/21 13:05:57;;;;;;;9.57;1.95;;;;;;;;;;5108338;28;20038;-76
2023/03/21 13:08:38;;;;;;;8.82;1.25;;;;;;;;;;5108461;28;20114;-77
2023/03/21 13:11:05;;;;;;;7.05;1.20;;;;;;;;;;5108270;28;20028;-77
2023/03/21 13:13:41;;;;;;;4.93;1.15;;;;;;;;;;5104540;28;20050;-75
2023/03/21 13:16:19;;;;;;;5.68;1.27;;;;;;;;;;5102986;28;20067;-77
2023/03/21 13:19:21;;;;;;;7.75;1.50;;;;;;;;;;5099739;28;20491;-77
2023/03/21 13:21:55;;;;;;;8.20;1.30;;;;;;;;;;5092703;28;20043;-76
2023/03/21 13:24:21;;;;;;;6.88;1.27;;;;;;;;;;5101932;28;20054;-77
2023/03/21 13:27:15;;;;;;;8.75;1.17;;;;;;;;;;5099632;28;20032;-77
2023/03/21 13:29:45;;;;;;;7.60;1.20;;;;;;;;;;5099625;28;20043;-75
2023/03/21 13:32:39;;;;;;;6.18;1.25;;;;;;;;;;5105111;28;20035;-77
2023/03/21 13:35:08;;;;;;;4.03;1.27;;;;;;;;;;5098124;28;20206;-76
2023/03/21 13:37:38;;;;;;;6.63;0.85;;;;;;;;;;5108453;28;20019;-77
2023/03/21 13:40:11;;;;;;;10.98;1.40;;;;;;;;;;5108336;28;20044;-77
2023/03/21 13:42:43;;;;;;;7.67;1.20;;;;;;;;;;5098873;28;20035;-77
2023/03/21 13:45:10;;;;;;;16.38;1.42;;;;;;;;;;5109200;28;20063;-76
2023/03/21 13:47:52;;;;;;;6.85;1.30;;;;;;;;;;5099437;28;20114;-78
2023/03/21 13:50:23;;;;;;;10.48;1.83;;;;;;;;;;5105564;28;20051;-78
2023/03/21 13:53:13;;;;;;;5.72;1.13;;;;;;;;;;5103296;28;20440;-76
2023/03/21 13:55:41;;;;;;;5.93;1.02;;;;;;;;;;5106222;28;20043;-76
2023/03/21 13:58:37;;;;;;;6.10;1.23;;;;;;;;;;5107585;28;20092;-76
2023/03/21 14:01:15;;;;;;;4.68;1.00;;;;;;;;;;5093848;28;20063;-75
2023/03/21 14:03:43;;;;;;;6.28;1.33;;;;;;;;;;5101694;28;20039;-77
2023/03/21 14:06:09;;;;;;;6.30;1.05;;;;;;;;;;5104971;28;20035;-77
2023/03/21 14:08:35;;;;;;;6.47;1.15;;;;;;;;;;5108876;28;20379;-76
2023/03/21 14:11:05;;;;;;;2.97;0.93;;;;;;;;;;5107628;28;20036;-75
2023/03/21 14:13:30;;;;;;;6.85;1.60;;;;;;;;;;5104895;28;20044;-76
2023/03/21 14:16:00;;;;;;;6.90;1.20;;;;;;;;;;5107317;28;20035;-77
2023/03/21 14:18:27;;;;;;;4.50;1.58;;;;;;;;;;5108321;28;20449;-76
2023/03/21 14:20:57;;;;;;;5.95;1.48;;;;;;;;;;5106758;28;20165;-77
2023/03/21 14:23:23;;;;;;;3.40;1.02;;;;;;;;;;5107252;28;20073;-76
2023/03/21 14:25:49;;;;;;;3.28;0.88;;;;;;;;;;5108335;28;20604;-77
2023/03/21 14:28:16;;;;;;;7.43;1.42;;;;;;;;;;5106527;28;20048;-78
2023/03/21 14:30:43;;;;;;;4.35;1.10;;;;;;;;;;5107040;28;20448;-75
2023/03/21 14:33:26;;;;;;;4.53;1.10;;;;;;;;;;5108806;28;20433;-77
2023/03/21 14:35:54;;;;;;;4.20;1.23;;;;;;;;;;5096653;28;20391;-77
2023/03/21 14:38:22;;;;;;;4.80;1.13;;;;;;;;;;5108166;28;20039;-76
2023/03/21 14:40:50;;;;;;;5.18;1.20;;;;;;;;;;5112752;28;20501;-77
2023/03/21 14:43:17;;;;;;;4.93;1.10;;;;;;;;;;5111340;28;20152;-77
2023/03/21 14:45:46;;;;;;;7.43;1.10;;;;;;;;;;5110124;28;20035;-76
2023/03/21 14:48:15;;;;;;;6.20;1.05;;;;;;;;;;5110895;28;20035;-76
2023/03/21 14:50:54;;;;;;;7.70;1.20;;;;;;;;;;5111460;28;20084;-77
2023/03/21 14:53:24;;;;;;;4.28;0.70;;;;;;;;;;5110868;28;20130;-77
2023/03/21 14:56:13;;;;;;;8.70;1.40;;;;;;;;;;5111015;28;20057;-76
2023/03/21 14:58:40;;;;;;;6.93;1.00;;;;;;;;;;5112116;28;20509;-76
2023/03/21 15:01:07;;;;;;;4.70;1.00;;;;;;;;;;5102411;28;20023;-75